createdAt,value
2023-04-12T00:02:03.137Z,9.7
2023-04-12T00:08:24.746Z,9.6
2023-04-12T00:15:02.994Z,9.4
2023-04-12T00:17:09.219Z,9.4
2023-04-12T00:19:18.327Z,9.3
2023-04-12T00:23:30.863Z,9.2
2023-04-12T00:25:37.130Z,9.1
2023-04-12T00:34:05.053Z,8.9
2023-04-12T00:36:11.340Z,8.9
2023-04-12T00:38:17.584Z,8.8
2023-04-12T00:40:23.854Z,8.8
2023-04-12T00:42:30.123Z,8.8
2023-04-12T00:44:36.393Z,8.8
2023-04-12T00:46:42.741Z,8.7
2023-04-12T00:48:51.742Z,8.7
2023-04-12T00:55:10.648Z,8.6
2023-04-12T00:57:16.784Z,8.6
2023-04-12T00:59:23.084Z,8.5
2023-04-12T01:01:29.336Z,8.5
2023-04-12T01:05:44.657Z,8.5
2023-04-12T01:11:01.756Z,8.4
2023-04-12T01:13:07.968Z,8.4
2023-04-12T01:15:14.239Z,8.3
2023-04-12T01:17:23.315Z,8.3
2023-04-12T01:21:35.796Z,8.3
2023-04-12T01:25:48.403Z,8.2
2023-04-12T01:27:54.571Z,8.2
2023-04-12T01:30:00.848Z,8.2
2023-04-12T01:38:28.670Z,8.1
2023-04-12T01:46:56.484Z,8
2023-04-12T01:49:02.715Z,8.1
2023-04-12T01:57:27.723Z,8
2023-04-12T01:59:33.985Z,7.9
2023-04-12T02:01:43.358Z,7.9
2023-04-12T02:03:49.504Z,7.9
2023-04-12T02:05:55.543Z,7.9
2023-04-12T02:07:00.057Z,7.9
2023-04-12T02:09:06.322Z,7.8
2023-04-12T02:11:12.558Z,7.9
2023-04-12T02:13:18.796Z,7.9
2023-04-12T02:15:27.866Z,7.9
2023-04-12T02:17:34.139Z,7.9
2023-04-12T02:19:40.384Z,7.9
2023-04-12T02:23:52.873Z,7.9
2023-04-12T02:28:05.350Z,7.9
2023-04-12T02:30:14.414Z,7.9
2023-04-12T02:32:20.646Z,7.8
2023-04-12T02:34:26.921Z,7.9
2023-04-12T02:36:33.147Z,7.8
2023-04-12T02:38:39.464Z,7.9
2023-04-12T02:40:45.665Z,7.8
2023-04-12T02:42:51.888Z,7.8
2023-04-12T02:45:00.964Z,7.8
2023-04-12T02:47:07.244Z,7.8
2023-04-12T02:51:19.683Z,7.9
2023-04-12T02:53:25.920Z,7.8
2023-04-12T02:55:32.164Z,7.8
2023-04-12T02:57:38.414Z,7.8
2023-04-12T02:59:47.490Z,7.9
2023-04-12T03:01:53.774Z,7.8
2023-04-12T03:04:00.406Z,7.9
2023-04-12T03:17:44.791Z,7.9
2023-04-12T03:19:51.005Z,7.9
2023-04-12T03:21:57.241Z,7.9
2023-04-12T03:26:09.732Z,7.8
2023-04-12T03:28:19.027Z,7.9
2023-04-12T03:30:25.016Z,7.8
2023-04-12T03:32:31.272Z,7.8
2023-04-12T03:34:37.533Z,7.8
2023-04-12T03:36:43.841Z,7.8
2023-04-12T03:40:56.247Z,7.8
2023-04-12T03:47:17.776Z,7.8
2023-04-12T03:49:24.032Z,7.7
2023-04-12T03:53:36.505Z,7.7
2023-04-12T03:55:42.750Z,7.7
2023-04-12T03:57:51.852Z,7.7
2023-04-12T03:59:58.068Z,7.7
2023-04-12T04:02:04.315Z,7.7
2023-04-12T04:04:30.458Z,7.6
2023-04-12T04:06:36.680Z,7.6
2023-04-12T04:08:42.861Z,7.6
2023-04-12T04:10:51.929Z,7.5
2023-04-12T04:12:58.164Z,7.5
2023-04-12T04:15:04.436Z,7.5
2023-04-12T04:23:29.449Z,7.5
2023-04-12T04:25:38.424Z,7.4
2023-04-12T04:27:44.815Z,7.4
2023-04-12T04:29:50.915Z,7.4
2023-04-12T04:31:57.158Z,7.4
2023-04-12T04:36:09.666Z,7.4
2023-04-12T04:42:31.291Z,7.3
2023-04-12T04:44:37.553Z,7.3
2023-04-12T04:46:43.779Z,7.3
2023-04-12T04:48:50.051Z,7.3
2023-04-12T04:50:56.242Z,7.3
2023-04-12T04:53:02.510Z,7.3
2023-04-12T04:57:17.790Z,7.3
2023-04-12T05:02:34.902Z,7.3
2023-04-12T05:15:14.982Z,7.3
2023-04-12T05:17:21.384Z,7.3
2023-04-12T05:19:27.458Z,7.3
2023-04-12T05:21:33.760Z,7.3
2023-04-12T05:27:55.204Z,7.3
2023-04-12T05:42:43.288Z,7.4
2023-04-12T05:51:08.176Z,7.4
2023-04-12T05:53:17.182Z,7.4
2023-04-12T05:55:23.439Z,7.4
2023-04-12T05:57:29.652Z,7.4
2023-04-12T05:58:34.201Z,7.5
2023-04-12T06:00:40.398Z,7.4
2023-04-12T06:09:08.177Z,7.5
2023-04-12T06:11:14.389Z,7.5
2023-04-12T06:13:20.654Z,7.5
2023-04-12T06:17:33.111Z,7.5
2023-04-12T06:19:39.368Z,7.5
2023-04-12T06:21:48.415Z,7.6
2023-04-12T06:23:54.851Z,7.6
2023-04-12T06:26:00.901Z,7.6
2023-04-12T06:28:07.122Z,7.6
2023-04-12T06:30:13.380Z,7.6
2023-04-12T06:49:12.443Z,7.7
2023-04-12T06:56:38.411Z,7.7
2023-04-12T06:58:44.617Z,7.7
2023-04-12T07:02:57.183Z,7.7
2023-04-12T07:05:06.171Z,7.7
2023-04-12T07:07:12.435Z,7.7
2023-04-12T07:17:43.693Z,7.8
2023-04-12T07:19:52.682Z,7.8
2023-04-12T07:21:58.965Z,7.8
2023-04-12T07:26:11.423Z,7.9
2023-04-12T07:28:17.668Z,7.9
2023-04-12T07:32:30.300Z,8
2023-04-12T07:34:39.229Z,8.1
2023-04-12T07:43:04.151Z,8.3
2023-04-12T07:45:10.415Z,8.3
2023-04-12T07:47:16.652Z,8.4
2023-04-12T07:53:38.219Z,8.7
2023-04-12T07:56:02.045Z,8.7
2023-04-12T07:58:08.266Z,8.7
2023-04-12T08:06:36.070Z,8.8
2023-04-12T08:12:54.843Z,8.9
2023-04-12T08:15:01.084Z,8.9
2023-04-12T08:17:10.145Z,8.9
2023-04-12T08:19:16.407Z,8.9
2023-04-12T08:21:22.667Z,8.8
2023-04-12T08:23:28.944Z,8.9
2023-04-12T08:25:35.214Z,9
2023-04-12T08:29:47.710Z,9.2
2023-04-12T08:36:09.316Z,9.6
2023-04-12T08:38:15.547Z,9.7
2023-04-12T08:40:21.930Z,9.7
2023-04-12T08:42:28.051Z,9.8
2023-04-12T08:44:34.325Z,10
2023-04-12T08:50:55.915Z,10.2
2023-04-12T08:52:00.459Z,10.1
2023-04-12T08:54:06.744Z,10
2023-04-12T08:56:12.982Z,9.9
2023-04-12T08:58:19.267Z,9.8
2023-04-12T09:00:28.355Z,9.9
2023-04-12T09:02:34.780Z,10
2023-04-12T09:04:40.937Z,10
2023-04-12T09:06:47.154Z,10.1
2023-04-12T09:13:06.069Z,10
2023-04-12T09:19:27.544Z,11.5
2023-04-12T09:21:33.841Z,11.6
2023-04-12T09:23:40.113Z,11.4
2023-04-12T09:25:46.355Z,11.6
2023-04-12T09:30:01.753Z,12.2
2023-04-12T09:34:14.288Z,12.4
2023-04-12T09:36:20.659Z,12.4
2023-04-12T09:38:26.837Z,12.9
2023-04-12T09:40:33.120Z,12.6
2023-04-12T09:42:39.426Z,12.5
2023-04-12T09:46:54.952Z,12.4
2023-04-12T09:50:05.657Z,12.2
2023-04-12T09:52:11.934Z,12.3
2023-04-12T09:54:18.201Z,12.8
2023-04-12T10:00:39.856Z,13.3
2023-04-12T10:02:47.210Z,12.9
2023-04-12T10:04:52.552Z,12.9
2023-04-12T10:09:05.070Z,13.3
2023-04-12T10:13:20.441Z,13
2023-04-12T10:17:33.080Z,13.2
2023-04-12T10:19:39.320Z,13.7
2023-04-12T10:21:45.650Z,13.6
2023-04-12T10:32:19.897Z,13.4
2023-04-12T10:45:01.244Z,13.6
2023-04-12T10:48:11.452Z,13.6
2023-04-12T10:52:23.902Z,13.5
2023-04-12T10:54:30.252Z,13.6
2023-04-12T10:58:45.632Z,13
2023-04-12T11:19:51.368Z,13.2
2023-04-12T11:21:57.669Z,13.4
2023-04-12T11:24:03.924Z,13.4
2023-04-12T11:26:13.077Z,13.7
2023-04-12T11:28:28.645Z,14.4
2023-04-12T11:32:31.963Z,14.5
2023-04-12T11:34:39.770Z,13.8
2023-04-12T11:36:46.068Z,13.8
2023-04-12T11:38:52.313Z,13.8
2023-04-12T11:41:01.416Z,13.3
2023-04-12T11:49:40.321Z,13.1
2023-04-12T11:53:56.015Z,13.2
2023-04-12T11:58:08.325Z,13.1
2023-04-12T12:02:22.404Z,13.2
2023-04-12T12:04:27.539Z,13.1
2023-04-12T12:06:33.710Z,12.9
2023-04-12T12:08:42.591Z,12.7
2023-04-12T12:12:55.171Z,12.6
2023-04-12T12:15:01.500Z,12.3
2023-04-12T12:23:29.483Z,11
2023-04-12T12:25:35.745Z,10.8
2023-04-12T12:31:54.794Z,11.2
2023-04-12T12:40:22.575Z,12
2023-04-12T12:42:28.850Z,12.6
2023-04-12T12:43:33.410Z,12.7
2023-04-12T12:45:39.696Z,12.8
2023-04-12T12:47:46.099Z,13.1
2023-04-12T12:49:52.254Z,13
2023-04-12T12:52:01.350Z,13.3
2023-04-12T12:56:13.924Z,13
2023-04-12T13:00:26.495Z,12.7
2023-04-12T13:02:32.918Z,12.7
2023-04-12T13:04:39.301Z,12.8
2023-04-12T13:06:48.161Z,13.5
2023-04-12T13:08:54.463Z,13.7
2023-04-12T13:11:00.728Z,13.9
2023-04-12T13:15:22.118Z,13.9
2023-04-12T13:23:41.286Z,13.9
2023-04-12T13:25:47.656Z,13.9
2023-04-12T13:27:53.884Z,14.3
2023-04-12T13:30:00.266Z,14.8
2023-04-12T13:34:12.767Z,13.9
2023-04-12T13:36:21.887Z,14.3
2023-04-12T13:40:34.467Z,14
2023-04-12T13:41:39.023Z,13.5
2023-04-12T13:43:45.317Z,13.5
2023-04-12T13:45:51.641Z,13.6
2023-04-12T13:47:57.956Z,13.4
2023-04-12T13:50:07.018Z,13.2
2023-04-12T13:52:13.335Z,13.2
2023-04-12T13:58:32.295Z,13
2023-04-12T14:00:38.505Z,12.7
2023-04-12T14:02:44.927Z,12.9
2023-04-12T14:07:00.195Z,13.1
2023-04-12T14:17:31.871Z,12.9
2023-04-12T14:19:40.795Z,12.7
2023-04-12T14:21:47.076Z,12.7
2023-04-12T14:23:53.380Z,12.7
2023-04-12T14:25:59.679Z,12.5
2023-04-12T14:28:05.965Z,12.3
2023-04-12T14:30:12.288Z,12.1
2023-04-12T14:32:18.650Z,12.1
2023-04-12T14:38:40.251Z,11.9
2023-04-12T14:39:44.829Z,11.8
2023-04-12T14:41:51.131Z,11.7
2023-04-12T14:43:57.660Z,11.5
2023-04-12T14:46:03.720Z,11.5
2023-04-12T14:48:12.816Z,11.3
2023-04-12T14:50:19.103Z,11.4
2023-04-12T14:52:25.378Z,11.3
2023-04-12T14:56:46.695Z,11.2
2023-04-12T14:58:44.264Z,11.1
2023-04-12T15:00:50.555Z,11.1
2023-04-12T15:02:59.880Z,11.1
2023-04-12T15:05:06.123Z,11.1
2023-04-12T15:17:46.507Z,11
2023-04-12T15:19:52.722Z,10.9
2023-04-12T15:21:59.030Z,10.9
2023-04-12T15:24:05.294Z,10.9
2023-04-12T15:26:11.567Z,10.7
2023-04-12T15:28:17.868Z,10.7
2023-04-12T15:30:24.162Z,10.8
2023-04-12T15:32:35.846Z,10.7
2023-04-12T15:34:39.526Z,10.7
2023-04-12T15:36:46.046Z,10.7
2023-04-12T15:41:12.274Z,10.7
2023-04-12T15:43:18.541Z,10.7
2023-04-12T15:45:27.659Z,10.7
2023-04-12T15:47:33.948Z,10.7
2023-04-12T15:49:40.221Z,10.5
2023-04-12T15:58:05.326Z,10.5
2023-04-12T16:00:14.405Z,10.3
2023-04-12T16:02:20.864Z,10.3
2023-04-12T16:04:27.222Z,10.3
2023-04-12T16:06:33.269Z,10.2
2023-04-12T16:08:39.533Z,10.1
2023-04-12T16:10:45.811Z,10.1
2023-04-12T16:12:52.086Z,10.1
2023-04-12T16:15:01.165Z,9.8
2023-04-12T16:17:07.449Z,9.8
2023-04-12T16:21:20.210Z,9.5
2023-04-12T16:25:32.580Z,9.5
2023-04-12T16:27:38.843Z,9.5
2023-04-12T16:29:47.898Z,9.5
2023-04-12T16:34:00.503Z,9.3
2023-04-12T16:39:17.703Z,9.4
2023-04-12T16:41:23.854Z,9.3
2023-04-12T16:58:19.664Z,13.9
2023-04-12T17:00:25.891Z,14.6
2023-04-12T17:02:32.263Z,15.5
2023-04-12T17:06:44.738Z,15.3
2023-04-12T17:08:51.006Z,15.9
2023-04-12T17:10:57.309Z,16.4
2023-04-12T17:15:12.706Z,14.2
2023-04-12T17:19:25.294Z,14.9
2023-04-12T17:21:31.565Z,15.1
2023-04-12T17:23:37.878Z,14.6
2023-04-12T17:25:44.176Z,14.3
2023-04-12T17:27:53.276Z,11.2
2023-04-12T17:29:59.560Z,10.6
2023-04-12T17:32:05.859Z,10.1
2023-04-12T17:33:10.422Z,9.7
2023-04-12T17:35:16.711Z,9.6
2023-04-12T17:43:46.247Z,9.1
2023-04-12T17:45:52.607Z,9
2023-04-12T17:47:58.860Z,9
2023-04-12T17:52:11.385Z,9
2023-04-12T17:56:26.776Z,8.9
2023-04-12T17:58:33.019Z,8.9
2023-04-12T18:00:39.327Z,8.8
2023-04-12T18:02:45.640Z,8.7
2023-04-12T18:15:26.139Z,8.5
2023-04-12T18:17:32.314Z,8.4
2023-04-12T18:19:38.545Z,8.3
2023-04-12T18:21:44.800Z,8.2
2023-04-12T18:23:51.097Z,8.2
2023-04-12T18:26:00.156Z,8
2023-04-12T18:28:06.412Z,7.9
2023-04-12T18:30:12.674Z,7.8
2023-04-12T18:31:17.215Z,7.8
2023-04-12T18:33:23.436Z,7.6
2023-04-12T18:35:29.738Z,7.5
2023-04-12T18:37:35.954Z,7.5
2023-04-12T18:39:44.991Z,7.4
2023-04-12T18:41:51.235Z,7.4
2023-04-12T18:46:03.759Z,7.3
2023-04-12T18:48:10.058Z,7.2
2023-04-12T18:50:16.217Z,7.1
2023-04-12T18:52:22.873Z,7
2023-04-12T18:54:31.913Z,6.9
2023-04-12T18:56:38.142Z,6.9
2023-04-12T18:58:54.453Z,6.8
2023-04-12T19:05:03.061Z,6.8
2023-04-12T19:07:09.310Z,6.7
2023-04-12T19:17:43.349Z,6.5
2023-04-12T19:21:55.787Z,6.5
2023-04-12T19:24:04.792Z,6.4
2023-04-12T19:26:11.023Z,6.4
2023-04-12T19:28:17.248Z,6.3
2023-04-12T19:30:37.556Z,6.3
2023-04-12T19:32:43.855Z,6.2
2023-04-12T19:34:50.025Z,6.2
2023-04-12T19:36:59.025Z,6.2
2023-04-12T19:45:24.045Z,5.9
2023-04-12T19:47:30.154Z,5.9
2023-04-12T19:49:36.359Z,5.9
2023-04-12T19:51:45.375Z,5.8
2023-04-12T19:53:51.689Z,5.8
2023-04-12T19:55:58.023Z,5.8
2023-04-12T20:00:10.562Z,5.8
2023-04-12T20:02:16.914Z,5.7
2023-04-12T20:04:22.993Z,5.7
2023-04-12T20:06:31.991Z,5.7
2023-04-12T20:08:38.176Z,5.7
2023-04-12T20:10:44.382Z,5.6
2023-04-12T20:17:03.377Z,5.6
2023-04-12T20:23:24.921Z,5.5
2023-04-12T20:28:41.911Z,5.4
2023-04-12T20:32:54.650Z,5.5
2023-04-12T20:39:15.879Z,5.3
2023-04-12T20:41:22.172Z,5.4
2023-04-12T20:45:34.805Z,5.3
2023-04-12T20:47:41.111Z,5.3
2023-04-12T20:49:50.290Z,5.2
2023-04-12T20:58:15.460Z,5.2
2023-04-12T21:00:21.749Z,5.2
2023-04-12T21:02:28.352Z,5.2
2023-04-12T21:10:56.112Z,5.2
2023-04-12T21:13:02.379Z,5.2
2023-04-12T21:15:08.653Z,5.2
2023-04-12T21:17:14.924Z,5.3
2023-04-12T21:19:24.120Z,5.2
2023-04-12T21:21:30.311Z,5.2
2023-04-12T21:23:36.583Z,5.2
2023-04-12T21:24:41.174Z,5.2
2023-04-12T21:33:09.190Z,5.3
2023-04-12T21:35:15.525Z,5.3
2023-04-12T21:41:34.362Z,5.4
2023-04-12T21:43:40.625Z,5.5
2023-04-12T21:45:46.935Z,5.5
2023-04-12T21:47:56.131Z,5.5
2023-04-12T21:50:02.409Z,5.6
2023-04-12T21:52:08.659Z,5.7
2023-04-12T21:54:14.945Z,5.7
2023-04-12T21:56:21.256Z,5.8
2023-04-12T22:15:20.773Z,5.8
2023-04-12T22:19:36.230Z,6
2023-04-12T22:21:42.556Z,6.1
2023-04-12T22:22:47.132Z,6.1
2023-04-12T22:24:53.427Z,6.1
2023-04-12T22:26:59.734Z,6.2
2023-04-12T22:35:27.642Z,6.3
2023-04-12T22:37:33.809Z,6.4
2023-04-12T22:43:52.617Z,6.4
2023-04-12T22:46:01.768Z,6.4
2023-04-12T22:48:07.960Z,6.5
2023-04-12T22:50:14.130Z,6.5
2023-04-12T22:52:20.350Z,6.5
2023-04-12T22:54:26.581Z,6.5
2023-04-12T22:56:32.776Z,6.6
2023-04-12T22:58:38.974Z,6.6
2023-04-12T23:05:00.579Z,6.8
2023-04-12T23:07:06.689Z,6.9
2023-04-12T23:09:12.893Z,7
2023-04-12T23:15:34.408Z,6.5
2023-04-12T23:17:40.598Z,6.5
2023-04-12T23:19:46.800Z,6.4
2023-04-12T23:22:12.278Z,6.3
2023-04-12T23:26:24.689Z,6.3
2023-04-12T23:30:39.923Z,6.3
2023-04-12T23:43:23.198Z,6.2
2023-04-12T23:45:29.345Z,6.2
2023-04-12T23:47:35.575Z,6.2
2023-04-12T23:51:48.185Z,6.2
2023-04-12T23:53:55.170Z,6.2
